createdAt,value
2023-10-18T00:00:19.726Z,1.95
2023-10-18T00:00:44.948Z,1.97
2023-10-18T00:01:07.514Z,1.99
2023-10-18T00:01:30.371Z,2.00
2023-10-18T00:01:53.514Z,2.01
2023-10-18T00:02:19.995Z,2.03
2023-10-18T00:02:42.259Z,2.03
2023-10-18T00:03:08.004Z,2.04
2023-10-18T00:03:31.164Z,2.04
2023-10-18T00:03:57.403Z,2.04
2023-10-18T00:04:24.069Z,2.03
2023-10-18T00:04:46.643Z,2.03
2023-10-18T00:05:12.133Z,2.02
2023-10-18T00:05:34.347Z,2.03
2023-10-18T00:05:57.324Z,2.02
2023-10-18T00:06:22.844Z,2.02
2023-10-18T00:06:49.561Z,2.02
2023-10-18T00:07:13.583Z,2.01
2023-10-18T00:07:36.328Z,2.00
2023-10-18T00:07:58.924Z,2.01
2023-10-18T00:08:23.275Z,2.00
2023-10-18T00:08:48.338Z,2.00
2023-10-18T00:09:29.544Z,1.99
2023-10-18T00:09:52.423Z,1.99
2023-10-18T00:10:18.672Z,1.98
2023-10-18T00:10:40.955Z,1.98
2023-10-18T00:11:03.159Z,1.97
2023-10-18T00:11:26.789Z,1.96
2023-10-18T00:11:53.087Z,1.95
2023-10-18T00:12:18.403Z,1.94
2023-10-18T00:12:41.272Z,1.93
2023-10-18T00:13:03.850Z,1.92
2023-10-18T00:13:26.516Z,1.91
2023-10-18T00:13:51.178Z,1.90
2023-10-18T00:14:13.490Z,1.89
2023-10-18T00:14:36.497Z,1.88
2023-10-18T00:14:58.772Z,1.87
2023-10-18T00:15:21.508Z,1.86
2023-10-18T00:15:43.747Z,1.84
2023-10-18T00:16:06.495Z,1.83
2023-10-18T00:16:28.876Z,1.82
2023-10-18T00:16:51.270Z,1.81
2023-10-18T00:17:13.884Z,1.80
2023-10-18T00:17:36.300Z,1.79
2023-10-18T00:17:58.814Z,1.78
2023-10-18T00:18:21.983Z,1.77
2023-10-18T00:18:44.393Z,1.78
2023-10-18T00:19:06.957Z,1.78
2023-10-18T00:19:29.504Z,1.79
2023-10-18T00:19:52.016Z,1.81
2023-10-18T00:20:17.789Z,1.81
2023-10-18T00:20:40.263Z,1.83
2023-10-18T00:21:03.173Z,1.83
2023-10-18T00:21:25.392Z,1.85
2023-10-18T00:21:47.784Z,1.86
2023-10-18T00:22:14.200Z,1.87
2023-10-18T00:22:37.298Z,1.88
2023-10-18T00:22:59.497Z,1.89
2023-10-18T00:23:23.523Z,1.89
2023-10-18T00:23:46.016Z,1.89
2023-10-18T00:24:08.696Z,1.89
2023-10-18T00:24:31.047Z,1.88
2023-10-18T00:24:53.332Z,1.87
2023-10-18T00:25:17.473Z,1.86
2023-10-18T00:25:40.028Z,1.85
2023-10-18T00:26:05.316Z,1.84
2023-10-18T00:26:27.721Z,1.83
2023-10-18T00:26:51.413Z,1.81
2023-10-18T00:27:14.247Z,1.81
2023-10-18T00:27:36.549Z,1.80
2023-10-18T00:27:59.683Z,1.80
2023-10-18T00:28:22.052Z,1.79
2023-10-18T00:28:44.435Z,1.78
2023-10-18T00:29:06.680Z,1.77
2023-10-18T00:29:29.101Z,1.76
2023-10-18T00:29:54.152Z,1.75
2023-10-18T00:30:20.190Z,1.74
2023-10-18T00:30:42.665Z,1.74
2023-10-18T00:31:15.889Z,1.73
2023-10-18T00:31:38.489Z,1.72
2023-10-18T00:32:00.935Z,1.72
2023-10-18T00:32:23.498Z,1.71
2023-10-18T00:32:46.082Z,1.70
2023-10-18T00:33:08.553Z,1.70
2023-10-18T00:33:30.825Z,1.70
2023-10-18T00:33:53.133Z,1.69
2023-10-18T00:34:15.718Z,1.68
2023-10-18T00:34:38.062Z,1.68
2023-10-18T00:35:00.968Z,1.67
2023-10-18T00:35:37.715Z,1.67
2023-10-18T00:35:59.918Z,1.66
2023-10-18T00:36:23.952Z,1.64
2023-10-18T00:36:47.110Z,1.64
2023-10-18T00:37:09.965Z,1.63
2023-10-18T00:37:33.196Z,1.63
2023-10-18T00:37:56.875Z,1.62
2023-10-18T00:38:20.046Z,1.62
2023-10-18T00:38:42.329Z,1.62
2023-10-18T00:39:27.642Z,1.62
2023-10-18T00:39:50.182Z,1.65
2023-10-18T00:40:37.014Z,1.66
2023-10-18T00:41:00.477Z,1.69
2023-10-18T00:41:34.072Z,1.71
2023-10-18T00:41:56.792Z,1.73
2023-10-18T00:42:29.582Z,1.74
2023-10-18T00:42:54.486Z,1.77
2023-10-18T00:43:17.123Z,1.78
2023-10-18T00:43:39.741Z,1.78
2023-10-18T00:44:02.240Z,1.79
2023-10-18T00:44:24.646Z,1.79
2023-10-18T00:44:51.641Z,1.78
2023-10-18T00:45:13.840Z,1.77
2023-10-18T00:45:39.584Z,1.76
2023-10-18T00:46:02.086Z,1.76
2023-10-18T00:46:24.684Z,1.74
2023-10-18T00:46:48.391Z,1.74
2023-10-18T00:47:14.986Z,1.74
2023-10-18T00:47:37.267Z,1.73
2023-10-18T00:48:01.818Z,1.73
2023-10-18T00:48:25.984Z,1.72
2023-10-18T00:48:48.245Z,1.72
2023-10-18T00:49:15.716Z,1.72
2023-10-18T00:49:38.752Z,1.71
2023-10-18T00:50:01.657Z,1.71
2023-10-18T00:50:29.067Z,1.71
2023-10-18T00:50:53.645Z,1.70
2023-10-18T00:51:19.634Z,1.70
2023-10-18T00:51:45.506Z,1.70
2023-10-18T00:52:08.541Z,1.69
2023-10-18T00:52:31.494Z,1.69
2023-10-18T00:52:54.071Z,1.68
2023-10-18T00:53:23.258Z,1.68
2023-10-18T00:53:45.842Z,1.68
2023-10-18T00:54:12.422Z,1.67
2023-10-18T00:54:34.820Z,1.67
2023-10-18T00:54:57.060Z,1.67
2023-10-18T00:55:20.628Z,1.67
2023-10-18T00:55:43.028Z,1.68
2023-10-18T00:56:09.007Z,1.69
2023-10-18T00:56:31.213Z,1.70
2023-10-18T00:56:54.429Z,1.71
2023-10-18T00:57:27.138Z,1.73
2023-10-18T00:58:04.806Z,1.75
2023-10-18T00:58:28.721Z,1.76
2023-10-18T00:58:53.871Z,1.76
2023-10-18T00:59:28.303Z,1.78
2023-10-18T00:59:52.406Z,1.78
2023-10-18T01:00:21.105Z,1.77
2023-10-18T01:00:45.385Z,1.75
2023-10-18T01:01:11.551Z,1.73
2023-10-18T01:01:34.950Z,1.71
2023-10-18T01:01:59.962Z,1.69
2023-10-18T01:02:29.450Z,1.67
2023-10-18T01:02:58.958Z,1.65
2023-10-18T01:03:32.148Z,1.62
2023-10-18T01:03:55.035Z,1.60
2023-10-18T01:04:17.511Z,1.57
2023-10-18T01:04:42.276Z,1.55
2023-10-18T01:05:06.455Z,1.54
2023-10-18T01:05:29.573Z,1.52
2023-10-18T01:06:08.687Z,1.50
2023-10-18T01:06:31.411Z,1.47
2023-10-18T01:06:59.319Z,1.45
2023-10-18T01:07:44.579Z,1.42
2023-10-18T01:08:12.192Z,1.41
2023-10-18T01:08:38.683Z,1.38
2023-10-18T01:09:01.689Z,1.36
2023-10-18T01:09:24.910Z,1.35
2023-10-18T01:09:50.756Z,1.34
2023-10-18T01:10:13.956Z,1.33
2023-10-18T01:10:38.714Z,1.32
2023-10-18T01:11:11.577Z,1.31
2023-10-18T01:11:33.909Z,1.29
2023-10-18T01:11:56.172Z,1.28
2023-10-18T01:12:18.985Z,1.27
2023-10-18T01:12:41.282Z,1.26
2023-10-18T01:13:04.255Z,1.25
2023-10-18T01:13:26.582Z,1.24
2023-10-18T01:13:49.261Z,1.23
2023-10-18T01:14:14.464Z,1.23
2023-10-18T01:14:37.701Z,1.23
2023-10-18T01:14:59.965Z,1.24
2023-10-18T01:15:22.773Z,1.25
2023-10-18T01:15:46.176Z,1.26
2023-10-18T01:16:28.164Z,1.27
2023-10-18T01:16:51.061Z,1.29
2023-10-18T01:17:13.325Z,1.31
2023-10-18T01:17:36.396Z,1.32
2023-10-18T01:17:58.737Z,1.34
2023-10-18T01:18:21.334Z,1.34
2023-10-18T01:18:50.459Z,1.34
2023-10-18T01:19:16.294Z,1.34
2023-10-18T01:19:42.300Z,1.34
2023-10-18T01:20:23.964Z,1.33
2023-10-18T01:20:47.612Z,1.31
2023-10-18T01:21:15.262Z,1.30
2023-10-18T01:21:38.431Z,1.28
2023-10-18T01:22:01.274Z,1.27
2023-10-18T01:22:25.196Z,1.26
2023-10-18T01:22:47.998Z,1.25
2023-10-18T01:23:11.284Z,1.23
2023-10-18T01:23:34.609Z,1.22
2023-10-18T01:23:57.719Z,1.20
2023-10-18T01:24:20.524Z,1.19
2023-10-18T01:24:42.812Z,1.18
2023-10-18T01:25:06.357Z,1.16
2023-10-18T01:25:29.509Z,1.15
2023-10-18T01:25:51.958Z,1.13
2023-10-18T01:26:17.330Z,1.13
2023-10-18T01:26:39.601Z,1.11
2023-10-18T01:27:05.597Z,1.10
2023-10-18T01:27:28.094Z,1.09
2023-10-18T01:27:50.413Z,1.08
2023-10-18T01:28:13.204Z,1.07
2023-10-18T01:28:35.702Z,1.06
2023-10-18T01:28:58.814Z,1.05
2023-10-18T01:29:22.143Z,1.03
2023-10-18T01:29:45.386Z,1.02
2023-10-18T01:30:08.256Z,1.02
2023-10-18T01:30:30.891Z,1.00
2023-10-18T01:30:54.198Z,0.99
2023-10-18T01:31:17.058Z,0.97
2023-10-18T01:31:50.776Z,0.96
2023-10-18T01:32:14.774Z,0.95
2023-10-18T01:32:37.028Z,0.94
2023-10-18T01:32:59.306Z,0.93
2023-10-18T01:33:23.853Z,0.92
2023-10-18T01:33:47.699Z,0.91
2023-10-18T01:34:12.135Z,0.90
2023-10-18T01:34:35.295Z,0.89
2023-10-18T01:34:57.706Z,0.89
2023-10-18T01:35:22.553Z,0.89
2023-10-18T01:35:52.416Z,0.90
2023-10-18T01:36:22.292Z,0.92
2023-10-18T01:36:44.942Z,0.93
2023-10-18T01:37:15.104Z,0.95
2023-10-18T01:37:40.546Z,0.97
2023-10-18T01:38:06.346Z,0.98
2023-10-18T01:38:31.551Z,1.00
2023-10-18T01:38:54.288Z,1.00
2023-10-18T01:39:20.458Z,1.02
2023-10-18T01:39:43.489Z,1.02
2023-10-18T01:40:25.082Z,1.02
2023-10-18T01:40:53.474Z,1.01
2023-10-18T01:41:28.569Z,1.01
2023-10-18T01:41:52.253Z,0.99
2023-10-18T01:42:15.217Z,0.98
2023-10-18T01:42:39.404Z,0.97
2023-10-18T01:43:01.710Z,0.96
2023-10-18T01:43:29.532Z,0.95
2023-10-18T01:43:52.968Z,0.94
2023-10-18T01:44:19.747Z,0.93
2023-10-18T01:44:42.631Z,0.93
2023-10-18T01:45:08.075Z,0.92
2023-10-18T01:45:37.056Z,0.90
2023-10-18T01:46:00.005Z,0.90
2023-10-18T01:46:25.079Z,0.89
2023-10-18T01:46:48.179Z,0.89
2023-10-18T01:47:10.786Z,0.88
2023-10-18T01:47:47.460Z,0.88
2023-10-18T01:48:19.404Z,0.87
2023-10-18T01:48:41.937Z,0.86
2023-10-18T01:49:08.668Z,0.86
2023-10-18T01:49:31.534Z,0.86
2023-10-18T01:49:54.850Z,0.86
2023-10-18T01:50:19.680Z,0.86
2023-10-18T01:50:41.913Z,0.84
2023-10-18T01:51:04.502Z,0.85
2023-10-18T01:51:27.025Z,0.84
2023-10-18T01:51:52.730Z,0.84
2023-10-18T01:52:19.029Z,0.83
2023-10-18T01:52:42.855Z,0.83
2023-10-18T01:53:05.795Z,0.83
2023-10-18T01:53:28.408Z,0.83
2023-10-18T01:53:52.532Z,0.84
2023-10-18T01:54:17.109Z,0.85
2023-10-18T01:54:39.926Z,0.87
2023-10-18T01:55:02.417Z,0.88
2023-10-18T01:55:29.496Z,0.90
2023-10-18T01:55:55.347Z,0.92
2023-10-18T01:56:19.315Z,0.93
2023-10-18T01:56:42.854Z,0.95
2023-10-18T01:57:07.522Z,0.96
2023-10-18T01:57:29.866Z,0.98
2023-10-18T01:57:52.125Z,0.98
2023-10-18T01:58:15.249Z,0.99
2023-10-18T01:58:37.902Z,0.99
2023-10-18T01:59:00.623Z,0.99
2023-10-18T01:59:26.767Z,0.99
2023-10-18T01:59:50.743Z,0.98
2023-10-18T02:00:36.045Z,0.97
2023-10-18T02:01:02.622Z,0.96
2023-10-18T02:01:25.074Z,0.95
2023-10-18T02:01:53.257Z,0.94
2023-10-18T02:02:16.798Z,0.93
2023-10-18T02:02:39.422Z,0.92
2023-10-18T02:03:03.545Z,0.92
2023-10-18T02:03:26.198Z,0.91
2023-10-18T02:03:51.757Z,0.90
2023-10-18T02:04:35.836Z,0.89
2023-10-18T02:05:09.726Z,0.87
2023-10-18T02:05:32.910Z,0.86
2023-10-18T02:05:55.224Z,0.85
2023-10-18T02:06:18.012Z,0.84
2023-10-18T02:06:40.780Z,0.83
2023-10-18T02:07:03.467Z,0.83
2023-10-18T02:07:26.053Z,0.82
2023-10-18T02:07:48.871Z,0.81
2023-10-18T02:08:12.977Z,0.80
2023-10-18T02:08:38.220Z,0.79
2023-10-18T02:09:00.562Z,0.78
2023-10-18T02:09:24.459Z,0.77
2023-10-18T02:09:59.557Z,0.76
2023-10-18T02:10:23.368Z,0.74
2023-10-18T02:10:51.291Z,0.73
2023-10-18T02:11:13.891Z,0.72
2023-10-18T02:11:37.039Z,0.72
2023-10-18T02:11:59.403Z,0.72
2023-10-18T02:12:22.133Z,0.72
2023-10-18T02:12:45.567Z,0.73
2023-10-18T02:13:09.846Z,0.74
2023-10-18T02:13:32.474Z,0.75
2023-10-18T02:13:58.919Z,0.76
2023-10-18T02:14:21.478Z,0.77
2023-10-18T02:14:43.743Z,0.79
2023-10-18T02:15:09.029Z,0.80
2023-10-18T02:15:32.029Z,0.81
2023-10-18T02:15:55.028Z,0.82
2023-10-18T02:16:17.996Z,0.82
2023-10-18T02:16:43.074Z,0.82
2023-10-18T02:17:08.036Z,0.82
2023-10-18T02:17:30.365Z,0.81
2023-10-18T02:17:55.154Z,0.81
2023-10-18T02:18:18.461Z,0.78
2023-10-18T02:18:41.547Z,0.77
2023-10-18T02:19:04.112Z,0.76
2023-10-18T02:19:28.674Z,0.75
2023-10-18T02:19:52.149Z,0.74
2023-10-18T02:20:26.362Z,0.72
2023-10-18T02:20:57.293Z,0.70
2023-10-18T02:21:23.098Z,0.68
2023-10-18T02:21:45.678Z,0.67
2023-10-18T02:22:09.338Z,0.67
2023-10-18T02:22:32.488Z,0.66
2023-10-18T02:23:02.992Z,0.65
2023-10-18T02:23:27.098Z,0.63
2023-10-18T02:23:52.511Z,0.63
2023-10-18T02:24:17.108Z,0.62
2023-10-18T02:24:40.120Z,0.61
2023-10-18T02:25:03.796Z,0.60
2023-10-18T02:25:44.509Z,0.59
2023-10-18T02:26:28.568Z,0.57
2023-10-18T02:27:02.114Z,0.56
2023-10-18T02:27:24.708Z,0.55
2023-10-18T02:27:47.711Z,0.54
2023-10-18T02:28:10.954Z,0.54
2023-10-18T02:28:33.652Z,0.53
2023-10-18T02:28:55.869Z,0.54
2023-10-18T02:29:18.416Z,0.55
2023-10-18T02:29:41.331Z,0.56
2023-10-18T02:30:05.056Z,0.57
2023-10-18T02:30:27.547Z,0.59
2023-10-18T02:31:08.415Z,0.61
2023-10-18T02:31:31.862Z,0.63
2023-10-18T02:31:58.409Z,0.65
2023-10-18T02:32:35.905Z,0.66
2023-10-18T02:33:02.915Z,0.66
2023-10-18T02:33:27.863Z,0.67
2023-10-18T02:33:50.529Z,0.66
2023-10-18T02:34:29.247Z,0.66
2023-10-18T02:34:53.372Z,0.65
2023-10-18T02:35:20.358Z,0.64
2023-10-18T02:35:45.112Z,0.63
2023-10-18T02:36:12.530Z,0.62
2023-10-18T02:36:40.070Z,0.59
2023-10-18T02:37:06.138Z,0.58
2023-10-18T02:37:28.348Z,0.57
2023-10-18T02:37:52.633Z,0.56
2023-10-18T02:38:15.410Z,0.55
2023-10-18T02:38:39.342Z,0.54
2023-10-18T02:39:02.092Z,0.53
2023-10-18T02:39:24.495Z,0.52
2023-10-18T02:39:51.121Z,0.51
2023-10-18T02:40:33.070Z,0.49
2023-10-18T02:40:58.139Z,0.48
2023-10-18T02:41:28.380Z,0.48
2023-10-18T02:41:52.158Z,0.46
2023-10-18T02:42:15.140Z,0.45
2023-10-18T02:42:38.097Z,0.44
2023-10-18T02:43:00.517Z,0.43
2023-10-18T02:43:22.890Z,0.42
2023-10-18T02:43:47.078Z,0.41
2023-10-18T02:44:12.005Z,0.40
2023-10-18T02:44:36.540Z,0.38
2023-10-18T02:44:58.820Z,0.37
2023-10-18T02:45:23.441Z,0.36
2023-10-18T02:45:52.067Z,0.35
2023-10-18T02:46:17.668Z,0.34
2023-10-18T02:46:40.241Z,0.35
2023-10-18T02:47:17.549Z,0.35
2023-10-18T02:47:40.032Z,0.36
2023-10-18T02:48:03.082Z,0.37
2023-10-18T02:48:25.936Z,0.39
2023-10-18T02:48:49.549Z,0.41
2023-10-18T02:49:11.912Z,0.42
2023-10-18T02:49:36.112Z,0.43
2023-10-18T02:49:58.377Z,0.45
2023-10-18T02:50:20.803Z,0.46
2023-10-18T02:50:43.030Z,0.47
2023-10-18T02:51:08.064Z,0.47
2023-10-18T02:51:30.377Z,0.48
2023-10-18T02:51:52.605Z,0.47
2023-10-18T02:52:19.605Z,0.46
2023-10-18T02:52:43.671Z,0.46
2023-10-18T02:53:07.798Z,0.44
2023-10-18T02:53:30.185Z,0.43
2023-10-18T02:53:52.934Z,0.42
2023-10-18T02:54:18.360Z,0.41
2023-10-18T02:54:41.179Z,0.39
2023-10-18T02:55:04.528Z,0.38
2023-10-18T02:55:27.522Z,0.37
2023-10-18T02:55:56.714Z,0.36
2023-10-18T02:56:22.147Z,0.34
2023-10-18T02:56:51.448Z,0.33
2023-10-18T02:57:15.133Z,0.31
2023-10-18T02:57:37.680Z,0.30
2023-10-18T02:58:01.231Z,0.29
2023-10-18T02:58:29.769Z,0.28
2023-10-18T02:58:54.620Z,0.27
2023-10-18T02:59:26.247Z,0.25
2023-10-18T02:59:51.668Z,0.24
2023-10-18T03:00:14.945Z,0.23
2023-10-18T03:00:42.004Z,0.21
2023-10-18T03:01:07.186Z,0.19
2023-10-18T03:01:29.652Z,0.17
2023-10-18T03:01:55.574Z,0.16
2023-10-18T03:02:23.959Z,0.15
2023-10-18T03:02:46.225Z,0.14
2023-10-18T03:03:08.725Z,0.14
2023-10-18T03:03:32.225Z,0.13
2023-10-18T03:03:57.982Z,0.14
2023-10-18T03:04:22.030Z,0.14
2023-10-18T03:04:44.965Z,0.15
2023-10-18T03:05:08.236Z,0.17
2023-10-18T03:05:34.452Z,0.18
2023-10-18T03:05:59.878Z,0.19
2023-10-18T03:06:26.066Z,0.22
2023-10-18T03:06:48.433Z,0.23
2023-10-18T03:07:14.523Z,0.24
2023-10-18T03:07:37.027Z,0.25
2023-10-18T03:08:00.269Z,0.26
2023-10-18T03:08:22.554Z,0.26
2023-10-18T03:08:45.542Z,0.26
2023-10-18T03:09:19.798Z,0.25
2023-10-18T03:09:42.087Z,0.25
2023-10-18T03:10:13.172Z,0.24
2023-10-18T03:10:46.120Z,0.22
2023-10-18T03:11:11.819Z,0.21
2023-10-18T03:11:34.075Z,0.19
2023-10-18T03:11:56.742Z,0.17
2023-10-18T03:12:19.558Z,0.16
2023-10-18T03:12:46.189Z,0.15
2023-10-18T03:13:13.099Z,0.13
2023-10-18T03:13:38.526Z,0.12
2023-10-18T03:14:02.892Z,0.11
2023-10-18T03:14:37.770Z,0.10
2023-10-18T03:15:04.327Z,0.08
2023-10-18T03:15:27.370Z,0.07
2023-10-18T03:16:06.015Z,0.06
2023-10-18T03:16:34.333Z,0.05
2023-10-18T03:16:56.888Z,0.04
2023-10-18T03:17:23.906Z,0.03
2023-10-18T03:17:50.522Z,0.02
2023-10-18T03:18:17.266Z,0.01
2023-10-18T03:18:40.678Z,0.00
2023-10-18T03:19:11.476Z,-0.01
2023-10-18T03:19:34.572Z,-0.03
2023-10-18T03:19:57.761Z,-0.03
2023-10-18T03:20:24.815Z,-0.04
2023-10-18T03:20:48.565Z,-0.04
2023-10-18T03:21:14.739Z,-0.04
2023-10-18T03:21:37.109Z,-0.04
2023-10-18T03:21:59.538Z,-0.04
2023-10-18T03:22:22.724Z,-0.02
2023-10-18T03:22:44.956Z,-0.01
2023-10-18T03:23:08.576Z,0.00
2023-10-18T03:23:32.580Z,0.02
2023-10-18T03:23:54.972Z,0.04
2023-10-18T03:24:20.853Z,0.05
2023-10-18T03:24:44.027Z,0.06
2023-10-18T03:25:13.157Z,0.08
2023-10-18T03:25:36.174Z,0.09
2023-10-18T03:26:01.100Z,0.10
2023-10-18T03:26:24.715Z,0.10
2023-10-18T03:26:47.710Z,0.09
2023-10-18T03:27:09.973Z,0.09
2023-10-18T03:27:34.978Z,0.08
2023-10-18T03:28:05.641Z,0.07
2023-10-18T03:28:35.541Z,0.06
2023-10-18T03:29:04.073Z,0.05
2023-10-18T03:29:28.085Z,0.04
2023-10-18T03:29:51.290Z,0.03
2023-10-18T03:30:19.407Z,0.02
2023-10-18T03:30:47.115Z,0.01
2023-10-18T03:31:28.918Z,0.00
2023-10-18T03:31:52.237Z,-0.02
2023-10-18T03:32:20.653Z,-0.02
2023-10-18T03:32:43.367Z,-0.03
2023-10-18T03:33:08.845Z,-0.04
2023-10-18T03:33:33.705Z,-0.05
2023-10-18T03:34:07.685Z,-0.06
2023-10-18T03:34:30.445Z,-0.07
2023-10-18T03:34:55.797Z,-0.08
2023-10-18T03:35:24.122Z,-0.09
2023-10-18T03:35:50.974Z,-0.10
2023-10-18T03:36:21.830Z,-0.11
2023-10-18T03:36:50.604Z,-0.12
2023-10-18T03:37:22.730Z,-0.13
2023-10-18T03:37:47.684Z,-0.14
2023-10-18T03:38:19.951Z,-0.15
2023-10-18T03:38:42.666Z,-0.15
2023-10-18T03:39:15.336Z,-0.15
2023-10-18T03:39:37.737Z,-0.14
2023-10-18T03:40:09.337Z,-0.13
2023-10-18T03:40:38.215Z,-0.11
2023-10-18T03:41:00.783Z,-0.08
2023-10-18T03:41:26.900Z,-0.07
2023-10-18T03:41:52.474Z,-0.05
2023-10-18T03:42:28.176Z,-0.04
2023-10-18T03:42:52.681Z,-0.02
2023-10-18T03:43:16.967Z,-0.01
2023-10-18T03:43:39.917Z,0.00
2023-10-18T03:44:08.374Z,0.00
2023-10-18T03:44:33.858Z,0.00
2023-10-18T03:44:59.125Z,-0.01
2023-10-18T03:45:44.707Z,-0.01
2023-10-18T03:46:30.546Z,-0.03
2023-10-18T03:46:57.163Z,-0.04
2023-10-18T03:47:25.942Z,-0.05
2023-10-18T03:48:00.958Z,-0.05
2023-10-18T03:48:27.964Z,-0.07
2023-10-18T03:48:58.140Z,-0.07
2023-10-18T03:49:25.809Z,-0.09
2023-10-18T03:49:49.265Z,-0.09
2023-10-18T03:50:17.249Z,-0.11
2023-10-18T03:50:42.426Z,-0.11
2023-10-18T03:51:05.877Z,-0.13
2023-10-18T03:51:31.334Z,-0.13
2023-10-18T03:51:56.504Z,-0.13
2023-10-18T03:52:18.978Z,-0.15
2023-10-18T03:52:42.488Z,-0.15
2023-10-18T03:53:08.283Z,-0.16
2023-10-18T03:53:31.828Z,-0.17
2023-10-18T03:53:56.556Z,-0.18
2023-10-18T03:54:20.592Z,-0.19
2023-10-18T03:54:55.335Z,-0.20
2023-10-18T03:55:18.967Z,-0.21
2023-10-18T03:55:44.004Z,-0.22
2023-10-18T03:56:08.067Z,-0.23
2023-10-18T03:56:33.785Z,-0.24
2023-10-18T03:56:56.991Z,-0.25
2023-10-18T03:57:20.188Z,-0.26
2023-10-18T03:57:43.185Z,-0.26
2023-10-18T03:58:09.544Z,-0.27
2023-10-18T03:58:35.819Z,-0.28
2023-10-18T03:59:16.855Z,-0.29
2023-10-18T03:59:42.421Z,-0.30
2023-10-18T04:00:29.813Z,-0.30
2023-10-18T04:00:58.184Z,-0.30
2023-10-18T04:01:23.163Z,-0.29
2023-10-18T04:02:04.026Z,-0.27
2023-10-18T04:02:26.670Z,-0.24
2023-10-18T04:02:48.986Z,-0.21
2023-10-18T04:03:13.833Z,-0.18
2023-10-18T04:03:36.749Z,-0.16
2023-10-18T04:03:59.357Z,-0.14
2023-10-18T04:04:23.054Z,-0.12
2023-10-18T04:04:49.676Z,-0.10
2023-10-18T04:05:24.014Z,-0.09
2023-10-18T04:05:46.737Z,-0.08
2023-10-18T04:06:22.289Z,-0.07
2023-10-18T04:06:44.613Z,-0.08
2023-10-18T04:07:21.486Z,-0.07
2023-10-18T04:07:44.161Z,-0.08
2023-10-18T04:08:07.697Z,-0.08
2023-10-18T04:08:29.977Z,-0.08
2023-10-18T04:08:52.184Z,-0.08
2023-10-18T04:09:15.054Z,-0.09
2023-10-18T04:09:37.375Z,-0.09
2023-10-18T04:10:18.537Z,-0.10
2023-10-18T04:10:42.088Z,-0.10
2023-10-18T04:11:06.091Z,-0.10
2023-10-18T04:11:29.603Z,-0.11
2023-10-18T04:11:51.869Z,-0.11
2023-10-18T04:12:21.088Z,-0.12
2023-10-18T04:12:45.771Z,-0.12
2023-10-18T04:13:14.971Z,-0.12
2023-10-18T04:13:37.594Z,-0.13
2023-10-18T04:14:00.099Z,-0.14
2023-10-18T04:14:24.334Z,-0.15
2023-10-18T04:15:02.269Z,-0.15
2023-10-18T04:15:30.709Z,-0.16
2023-10-18T04:16:01.165Z,-0.16
2023-10-18T04:16:29.648Z,-0.17
2023-10-18T04:16:58.481Z,-0.18
2023-10-18T04:17:22.184Z,-0.19
2023-10-18T04:17:44.443Z,-0.20
2023-10-18T04:18:09.611Z,-0.20
2023-10-18T04:18:32.274Z,-0.21
2023-10-18T04:18:54.622Z,-0.21
2023-10-18T04:19:21.071Z,-0.21
2023-10-18T04:19:43.662Z,-0.20
2023-10-18T04:20:29.780Z,-0.19
2023-10-18T04:20:53.553Z,-0.16
2023-10-18T04:21:17.236Z,-0.14
2023-10-18T04:21:41.977Z,-0.11
2023-10-18T04:22:09.745Z,-0.09
2023-10-18T04:22:32.018Z,-0.06
2023-10-18T04:22:54.278Z,-0.03
2023-10-18T04:23:29.146Z,-0.01
2023-10-18T04:23:51.359Z,0.01
2023-10-18T04:24:13.554Z,0.03
2023-10-18T04:24:35.933Z,0.04
2023-10-18T04:24:58.301Z,0.04
2023-10-18T04:25:37.727Z,0.05
2023-10-18T04:26:02.320Z,0.05
2023-10-18T04:26:26.726Z,0.04
2023-10-18T04:26:49.093Z,0.05
2023-10-18T04:27:12.510Z,0.05
2023-10-18T04:27:34.803Z,0.04
2023-10-18T04:28:00.083Z,0.04
2023-10-18T04:28:24.849Z,0.04
2023-10-18T04:28:47.320Z,0.03
2023-10-18T04:29:11.987Z,0.04
2023-10-18T04:29:34.726Z,0.03
2023-10-18T04:29:57.352Z,0.03
2023-10-18T04:30:23.778Z,0.03
2023-10-18T04:30:47.265Z,0.03
2023-10-18T04:31:16.578Z,0.03
2023-10-18T04:31:39.530Z,0.03
2023-10-18T04:32:05.249Z,0.03
2023-10-18T04:32:29.013Z,0.03
2023-10-18T04:33:01.493Z,0.04
2023-10-18T04:33:26.658Z,0.03
2023-10-18T04:33:54.427Z,0.04
2023-10-18T04:34:21.928Z,0.04
2023-10-18T04:34:45.693Z,0.04
2023-10-18T04:35:11.192Z,0.04
2023-10-18T04:35:34.468Z,0.04
2023-10-18T04:35:58.150Z,0.03
2023-10-18T04:36:23.617Z,0.03
2023-10-18T04:36:46.217Z,0.03
2023-10-18T04:37:14.299Z,0.03
2023-10-18T04:37:37.404Z,0.04
2023-10-18T04:37:59.801Z,0.05
2023-10-18T04:38:31.586Z,0.07
2023-10-18T04:38:54.021Z,0.09
2023-10-18T04:39:19.790Z,0.11
2023-10-18T04:39:42.209Z,0.13
2023-10-18T04:40:07.767Z,0.15
2023-10-18T04:40:30.045Z,0.16
2023-10-18T04:41:01.453Z,0.18
2023-10-18T04:41:25.357Z,0.18
2023-10-18T04:41:48.607Z,0.19
2023-10-18T04:42:17.961Z,0.19
2023-10-18T04:42:40.612Z,0.19
2023-10-18T04:43:03.084Z,0.19
2023-10-18T04:43:28.847Z,0.19
2023-10-18T04:43:52.363Z,0.18
2023-10-18T04:44:21.899Z,0.17
2023-10-18T04:44:49.746Z,0.18
2023-10-18T04:45:17.909Z,0.17
2023-10-18T04:45:43.922Z,0.17
2023-10-18T04:46:20.036Z,0.16
2023-10-18T04:46:44.794Z,0.16
2023-10-18T04:47:16.273Z,0.16
2023-10-18T04:47:41.648Z,0.16
2023-10-18T04:48:16.294Z,0.16
2023-10-18T04:49:01.249Z,0.16
2023-10-18T04:49:33.904Z,0.15
2023-10-18T04:50:03.500Z,0.16
2023-10-18T04:50:31.112Z,0.16
2023-10-18T04:50:54.122Z,0.16
2023-10-18T04:51:30.184Z,0.16
2023-10-18T04:51:55.703Z,0.16
2023-10-18T04:52:29.872Z,0.16
2023-10-18T04:52:52.580Z,0.17
2023-10-18T04:53:15.569Z,0.16
2023-10-18T04:53:39.703Z,0.17
2023-10-18T04:54:04.582Z,0.17
2023-10-18T04:54:38.750Z,0.18
2023-10-18T04:55:02.080Z,0.20
2023-10-18T04:55:27.257Z,0.23
2023-10-18T04:55:52.002Z,0.25
2023-10-18T04:56:16.112Z,0.27
2023-10-18T04:56:48.238Z,0.30
2023-10-18T04:57:12.425Z,0.34
2023-10-18T04:57:39.887Z,0.36
2023-10-18T04:58:02.786Z,0.40
2023-10-18T04:58:30.575Z,0.42
2023-10-18T04:58:52.971Z,0.45
2023-10-18T04:59:18.573Z,0.47
2023-10-18T04:59:47.012Z,0.48
2023-10-18T05:00:26.689Z,0.49
2023-10-18T05:00:58.634Z,0.50
2023-10-18T05:01:24.018Z,0.50
2023-10-18T05:01:55.972Z,0.51
2023-10-18T05:02:18.986Z,0.51
2023-10-18T05:02:47.136Z,0.52
2023-10-18T05:03:14.744Z,0.51
2023-10-18T05:03:38.442Z,0.52
2023-10-18T05:04:15.841Z,0.53
2023-10-18T05:04:38.451Z,0.53
2023-10-18T05:05:04.008Z,0.53
2023-10-18T05:05:28.576Z,0.53
2023-10-18T05:05:53.917Z,0.54
2023-10-18T05:06:17.423Z,0.54
2023-10-18T05:06:44.096Z,0.54
2023-10-18T05:07:16.900Z,0.54
2023-10-18T05:07:43.706Z,0.54
2023-10-18T05:08:06.405Z,0.55
2023-10-18T05:08:31.531Z,0.55
2023-10-18T05:08:57.310Z,0.55
2023-10-18T05:09:19.570Z,0.55
2023-10-18T05:09:42.349Z,0.56
2023-10-18T05:10:14.514Z,0.56
2023-10-18T05:10:36.857Z,0.56
2023-10-18T05:11:18.070Z,0.56
2023-10-18T05:11:48.830Z,0.57
2023-10-18T05:12:11.837Z,0.58
2023-10-18T05:12:44.249Z,0.58
2023-10-18T05:13:20.066Z,0.58
2023-10-18T05:13:43.576Z,0.59
2023-10-18T05:14:15.903Z,0.59
2023-10-18T05:15:18.902Z,0.60
2023-10-18T05:15:43.626Z,0.61
2023-10-18T05:16:06.434Z,0.61
2023-10-18T05:16:29.017Z,0.63
2023-10-18T05:16:51.703Z,0.64
2023-10-18T05:17:19.088Z,0.66
2023-10-18T05:17:44.223Z,0.68
2023-10-18T05:18:07.347Z,0.70
2023-10-18T05:18:31.478Z,0.74
2023-10-18T05:18:53.899Z,0.77
2023-10-18T05:19:28.413Z,0.80
2023-10-18T05:19:51.179Z,0.84
2023-10-18T05:20:19.174Z,0.88
2023-10-18T05:20:47.516Z,0.91
2023-10-18T05:21:09.904Z,0.94
2023-10-18T05:21:33.219Z,0.96
2023-10-18T05:21:55.546Z,0.98
2023-10-18T05:22:25.411Z,0.99
2023-10-18T05:22:51.207Z,1.01
2023-10-18T05:23:33.881Z,1.02
2023-10-18T05:23:56.406Z,1.03
2023-10-18T05:24:23.090Z,1.04
2023-10-18T05:24:47.701Z,1.05
2023-10-18T05:25:16.132Z,1.06
2023-10-18T05:25:46.700Z,1.07
2023-10-18T05:26:09.510Z,1.08
2023-10-18T05:26:34.725Z,1.09
2023-10-18T05:26:57.151Z,1.09
2023-10-18T05:27:25.774Z,1.10
2023-10-18T05:28:00.925Z,1.11
2023-10-18T05:28:27.922Z,1.13
2023-10-18T05:28:51.131Z,1.14
2023-10-18T05:29:19.208Z,1.15
2023-10-18T05:29:44.498Z,1.15
2023-10-18T05:30:16.197Z,1.16
2023-10-18T05:30:57.517Z,1.18
2023-10-18T05:31:38.900Z,1.19
2023-10-18T05:32:41.632Z,1.22
2023-10-18T05:33:16.784Z,1.28
2023-10-18T05:33:42.125Z,1.33
2023-10-18T05:34:20.123Z,1.36
2023-10-18T05:35:12.500Z,1.42
2023-10-18T05:35:35.788Z,1.48
2023-10-18T05:36:12.891Z,1.51
2023-10-18T05:36:56.157Z,1.55
2023-10-18T05:37:20.646Z,1.57
2023-10-18T05:37:42.990Z,1.59
2023-10-18T05:38:20.345Z,1.60
2023-10-18T05:38:53.154Z,1.61
2023-10-18T05:39:29.454Z,1.62
2023-10-18T05:40:12.076Z,1.63
2023-10-18T05:40:43.817Z,1.65
2023-10-18T05:41:19.850Z,1.66
2023-10-18T05:41:52.591Z,1.67
2023-10-18T05:42:21.529Z,1.68
2023-10-18T05:42:47.635Z,1.69
2023-10-18T05:43:29.123Z,1.70
2023-10-18T05:43:52.474Z,1.71
2023-10-18T05:44:14.983Z,1.72
2023-10-18T05:44:37.436Z,1.73
2023-10-18T05:45:00.766Z,1.73